Time;durP1;ratioP1;P1;durP2;ratioP2;P2;SDS_P1;SDS_P2;PMS_P1;PMS_P2;Temp;Humidity;BMP_temperature;BMP_pressure;BME280_temperature;BME280_humidity;BME280_pressure;Samples;Min_cycle;Max_cycle;Signal;HPM_P1;HPM_P2
2021/08/19 00:00:10;;;;;;;12.95;5.38;;;15.60;99.90;;;;;;5014027;28;20516;-90
2021/08/19 00:02:38;;;;;;;18.48;6.22;;;15.60;99.90;;;;;;5030084;28;20092;-90
2021/08/19 00:05:04;;;;;;;12.40;5.28;;;15.60;99.90;;;;;;5031337;28;20042;-91
2021/08/19 00:07:30;;;;;;;9.13;5.90;;;15.60;99.90;;;;;;5064875;28;20049;-91
2021/08/19 00:09:58;;;;;;;13.85;5.70;;;15.60;99.90;;;;;;5030244;28;20050;-92
2021/08/19 00:12:25;;;;;;;19.83;5.00;;;15.60;99.90;;;;;;5046633;28;20122;-90
2021/08/19 00:14:51;;;;;;;11.82;4.82;;;15.60;99.90;;;;;;5030299;28;20044;-90
2021/08/19 00:17:17;;;;;;;14.60;5.38;;;15.60;99.90;;;;;;5030684;28;20049;-93
2021/08/19 00:19:47;;;;;;;14.23;5.10;;;15.60;99.90;;;;;;5048415;28;20525;-92
2021/08/19 00:22:15;;;;;;;14.25;5.07;;;15.60;99.90;;;;;;5038128;28;20045;-91
2021/08/19 00:24:41;;;;;;;11.00;4.43;;;15.60;99.90;;;;;;5026463;28;20413;-90
2021/08/19 00:27:07;;;;;;;12.15;5.07;;;15.70;99.90;;;;;;5031076;28;20037;-91
2021/08/19 00:29:33;;;;;;;15.80;5.55;;;15.70;99.90;;;;;;5031009;28;20041;-91
2021/08/19 00:32:05;;;;;;;9.63;5.10;;;15.70;99.90;;;;;;5031192;28;20041;-90
2021/08/19 00:34:31;;;;;;;12.23;5.55;;;15.60;99.90;;;;;;5046191;28;20045;-88
2021/08/19 00:36:56;;;;;;;9.32;6.13;;;15.50;99.90;;;;;;5062553;28;20077;-89
2021/08/19 00:39:22;;;;;;;11.63;5.05;;;15.60;99.90;;;;;;5029725;28;20088;-91
2021/08/19 00:41:49;;;;;;;12.63;5.03;;;15.60;99.90;;;;;;5061228;28;20045;-90
2021/08/19 00:44:18;;;;;;;10.23;5.43;;;15.60;99.90;;;;;;5031939;28;20045;-93
2021/08/19 00:46:48;;;;;;;10.70;4.95;;;15.60;99.90;;;;;;5014986;28;20386;-94
2021/08/19 00:49:15;;;;;;;8.63;5.15;;;15.50;99.90;;;;;;5031381;28;20543;-93
2021/08/19 00:51:53;;;;;;;10.20;4.88;;;15.50;99.90;;;;;;5015318;28;20060;-92
2021/08/19 00:54:23;;;;;;;8.52;5.47;;;15.50;99.90;;;;;;5032081;28;20120;-93
2021/08/19 00:57:09;;;;;;;;;;;15.50;99.90;;;;;;5015105;28;20577;-93
2021/08/19 00:59:40;;;;;;;18.42;5.63;;;15.50;99.90;;;;;;5019754;28;19921;-92
2021/08/19 01:02:07;;;;;;;;;;;15.50;99.90;;;;;;5032522;28;20076;-92
2021/08/19 01:04:40;;;;;;;10.05;4.50;;;15.50;99.90;;;;;;5030596;28;19948;-92
2021/08/19 01:07:12;;;;;;;10.23;4.30;;;15.50;99.90;;;;;;5049804;28;20045;-92
2021/08/19 01:09:41;;;;;;;9.85;4.88;;;15.50;99.90;;;;;;5014702;28;20049;-94
2021/08/19 01:12:13;;;;;;;6.65;4.65;;;15.50;99.90;;;;;;5051402;28;20121;-94
2021/08/19 01:14:48;;;;;;;16.17;5.20;;;15.50;99.90;;;;;;5050359;28;20045;-92
2021/08/19 01:17:18;;;;;;;10.73;4.60;;;15.40;99.90;;;;;;5030767;28;20471;-93
2021/08/19 01:19:53;;;;;;;12.57;4.65;;;15.40;99.90;;;;;;5058772;28;20046;-92
2021/08/19 01:22:20;;;;;;;14.95;4.18;;;15.30;99.90;;;;;;5055487;28;20037;-91
2021/08/19 01:24:47;;;;;;;10.23;4.30;;;15.40;99.90;;;;;;5046920;28;20041;-92
2021/08/19 01:27:14;;;;;;;9.15;4.80;;;15.40;99.90;;;;;;5014009;28;20180;-93
2021/08/19 01:29:43;;;;;;;10.73;4.75;;;15.40;99.90;;;;;;5013923;28;20088;-91
2021/08/19 01:32:10;;;;;;;11.00;4.78;;;15.40;99.90;;;;;;5030370;28;20064;-90
2021/08/19 01:34:38;;;;;;;11.55;4.35;;;15.40;99.90;;;;;;5013361;28;20395;-92
2021/08/19 01:37:05;;;;;;;11.50;4.65;;;15.40;99.90;;;;;;5029681;28;20045;-89
2021/08/19 01:39:31;;;;;;;7.57;3.88;;;15.30;99.90;;;;;;5062132;28;20528;-90
2021/08/19 01:41:57;;;;;;;11.90;4.47;;;15.30;99.90;;;;;;5030083;28;20053;-91
2021/08/19 01:44:23;;;;;;;6.03;4.20;;;15.30;99.90;;;;;;5046072;28;20504;-89
2021/08/19 01:46:59;;;;;;;8.25;3.90;;;15.30;99.90;;;;;;5046105;28;20081;-89
2021/08/19 01:49:27;;;;;;;6.85;4.50;;;15.30;99.90;;;;;;5028753;28;20056;-90
2021/08/19 01:51:53;;;;;;;13.35;5.00;;;15.30;99.90;;;;;;5027365;28;20064;-90
2021/08/19 01:54:22;;;;;;;12.48;4.15;;;15.30;99.90;;;;;;5009313;28;20072;-91
2021/08/19 01:56:47;;;;;;;17.02;5.07;;;15.30;99.90;;;;;;5027414;28;20041;-91
2021/08/19 01:59:13;;;;;;;12.73;4.35;;;15.30;99.90;;;;;;5043503;28;20053;-92
2021/08/19 02:01:39;;;;;;;11.45;4.50;;;15.30;99.90;;;;;;5027832;28;20484;-92
2021/08/19 02:04:05;;;;;;;11.55;4.70;;;15.30;99.90;;;;;;5029353;28;20119;-89
2021/08/19 02:06:31;;;;;;;8.68;4.00;;;15.30;99.90;;;;;;5028435;28;20060;-88
2021/08/19 02:08:57;;;;;;;15.43;4.72;;;15.30;99.90;;;;;;5041340;28;20042;-89
2021/08/19 02:11:24;;;;;;;13.77;4.70;;;15.30;99.90;;;;;;5042402;28;20397;-89
2021/08/19 02:13:50;;;;;;;12.80;4.13;;;15.30;99.90;;;;;;5029205;28;20124;-89
2021/08/19 02:16:16;;;;;;;6.97;3.97;;;15.30;99.90;;;;;;5030054;28;20045;-91
2021/08/19 02:18:42;;;;;;;9.68;4.65;;;15.30;99.90;;;;;;5030206;28;20115;-90
2021/08/19 02:21:11;;;;;;;10.00;4.47;;;15.30;99.90;;;;;;5047441;28;20100;-89
2021/08/19 02:23:39;;;;;;;9.38;4.85;;;15.30;99.90;;;;;;5028612;28;20626;-88
2021/08/19 02:26:04;;;;;;;9.23;4.43;;;15.30;99.90;;;;;;5066049;28;20041;-88
2021/08/19 02:28:30;;;;;;;10.18;4.43;;;15.20;99.90;;;;;;5031376;28;20037;-89
2021/08/19 02:30:56;;;;;;;12.05;4.53;;;15.30;99.90;;;;;;5036536;28;20072;-90
2021/08/19 02:33:27;;;;;;;13.88;4.60;;;15.20;99.90;;;;;;5017947;28;20569;-90
2021/08/19 02:35:52;;;;;;;6.55;4.25;;;15.30;99.90;;;;;;5049577;28;20124;-90
2021/08/19 02:38:18;;;;;;;11.80;4.35;;;15.20;99.90;;;;;;5048950;28;20060;-89
2021/08/19 02:40:44;;;;;;;18.00;4.78;;;15.20;99.90;;;;;;5055490;28;20549;-89
2021/08/19 02:43:10;;;;;;;12.82;5.18;;;15.20;99.90;;;;;;5045088;28;20041;-89
2021/08/19 02:45:36;;;;;;;13.85;4.50;;;15.20;99.90;;;;;;5065662;28;20042;-89
2021/08/19 02:48:07;;;;;;;8.07;4.53;;;15.20;99.90;;;;;;5065722;28;20045;-91
2021/08/19 02:50:33;;;;;;;14.48;5.07;;;15.20;99.90;;;;;;5051383;28;20037;-89
2021/08/19 02:53:01;;;;;;;11.50;4.60;;;15.20;99.90;;;;;;5052216;28;20061;-90
2021/08/19 02:55:27;;;;;;;11.40;4.13;;;15.20;99.90;;;;;;5047551;28;20088;-91
2021/08/19 02:57:56;;;;;;;9.90;4.53;;;15.30;99.90;;;;;;5033049;28;20037;-92
2021/08/19 03:00:21;;;;;;;9.38;5.05;;;15.20;99.90;;;;;;5032211;28;20064;-93
2021/08/19 03:02:47;;;;;;;19.02;7.03;;;15.20;99.90;;;;;;5032441;28;20121;-91
2021/08/19 03:05:13;;;;;;;11.57;4.80;;;15.30;99.90;;;;;;5032578;28;20447;-91
2021/08/19 03:07:39;;;;;;;11.30;5.03;;;15.30;99.90;;;;;;5065552;28;20053;-91
2021/08/19 03:10:06;;;;;;;13.95;6.15;;;15.30;99.90;;;;;;5032827;28;20560;-90
2021/08/19 03:12:32;;;;;;;10.80;5.28;;;15.30;99.90;;;;;;5032257;28;20080;-89
2021/08/19 03:15:00;;;;;;;11.45;5.50;;;15.30;99.90;;;;;;5048710;28;20069;-91
2021/08/19 03:17:27;;;;;;;13.95;5.07;;;15.30;99.90;;;;;;5064856;28;20432;-89
2021/08/19 03:19:53;;;;;;;9.38;4.75;;;15.30;99.90;;;;;;5015996;28;20056;-91
2021/08/19 03:22:19;;;;;;;23.65;5.50;;;15.30;99.90;;;;;;5032720;28;20398;-90
2021/08/19 03:24:45;;;;;;;25.00;6.65;;;15.30;99.90;;;;;;5031394;28;20151;-90
2021/08/19 03:27:14;;;;;;;8.85;4.93;;;15.30;99.90;;;;;;5064450;28;20088;-90
2021/08/19 03:29:41;;;;;;;24.20;5.65;;;15.30;99.90;;;;;;5031290;28;20049;-90
2021/08/19 03:32:07;;;;;;;12.45;4.93;;;15.30;99.90;;;;;;5047528;28;20124;-88
2021/08/19 03:34:34;;;;;;;14.27;5.20;;;15.30;99.90;;;;;;5031579;28;20119;-88
2021/08/19 03:37:00;;;;;;;12.80;6.00;;;15.30;99.90;;;;;;5064509;28;20124;-90
2021/08/19 03:39:28;;;;;;;10.20;6.35;;;15.30;99.90;;;;;;5064543;28;20120;-92
2021/08/19 03:41:54;;;;;;;15.57;7.00;;;15.30;99.90;;;;;;5048231;28;20041;-89
2021/08/19 03:44:20;;;;;;;16.65;6.72;;;15.30;99.90;;;;;;5031347;28;20511;-89
2021/08/19 03:46:48;;;;;;;16.42;7.47;;;15.30;99.90;;;;;;5063800;28;20083;-89
2021/08/19 03:49:14;;;;;;;21.15;7.32;;;15.30;99.90;;;;;;5053791;28;20044;-90
2021/08/19 03:51:40;;;;;;;17.58;7.53;;;15.30;99.90;;;;;;5016329;28;20168;-91
2021/08/19 03:54:06;;;;;;;18.75;6.70;;;15.30;99.90;;;;;;5067910;28;20124;-90
2021/08/19 03:56:36;;;;;;;23.05;8.20;;;15.30;99.90;;;;;;5057628;28;20041;-90
2021/08/19 03:59:02;;;;;;;17.45;7.43;;;15.30;99.90;;;;;;5021144;28;20080;-90
2021/08/19 04:01:28;;;;;;;9.60;7.25;;;15.30;99.90;;;;;;5051046;28;20500;-90
2021/08/19 04:03:53;;;;;;;18.85;7.72;;;15.30;99.90;;;;;;5034223;28;20403;-91
2021/08/19 04:06:22;;;;;;;12.85;7.43;;;15.30;99.90;;;;;;5051640;28;20396;-91
2021/08/19 04:08:47;;;;;;;12.77;7.13;;;15.30;99.90;;;;;;5058139;28;20135;-92
2021/08/19 04:11:21;;;;;;;18.35;7.90;;;15.30;99.90;;;;;;5052573;28;20175;-92
2021/08/19 04:13:55;;;;;;;22.05;8.80;;;15.30;99.90;;;;;;5051074;28;20204;-91
2021/08/19 04:16:27;;;;;;;18.20;7.20;;;15.30;99.90;;;;;;5050739;28;20041;-91
2021/08/19 04:18:53;;;;;;;18.45;8.05;;;15.30;99.90;;;;;;5066862;28;20047;-90
2021/08/19 04:21:19;;;;;;;15.15;8.18;;;15.30;99.90;;;;;;5052709;28;20033;-93
2021/08/19 04:23:45;;;;;;;15.98;8.30;;;15.30;99.90;;;;;;5034513;28;20408;-94
2021/08/19 04:26:14;;;;;;;14.52;7.93;;;15.30;99.90;;;;;;5035219;28;20524;-92
2021/08/19 04:28:40;;;;;;;12.10;7.15;;;15.30;99.90;;;;;;5051754;28;20052;-93
2021/08/19 04:31:07;;;;;;;11.00;7.75;;;15.30;99.90;;;;;;5029724;28;20049;-91
2021/08/19 04:33:46;;;;;;;18.67;9.30;;;15.40;99.90;;;;;;5051812;28;20400;-93
2021/08/19 04:36:29;;;;;;;18.85;8.00;;;15.40;99.90;;;;;;5035185;28;20045;-93
2021/08/19 04:38:57;;;;;;;15.13;8.63;;;15.40;99.90;;;;;;5042665;28;20053;-92
2021/08/19 04:41:29;;;;;;;14.00;7.28;;;15.40;99.90;;;;;;5016803;28;20053;-92
2021/08/19 04:44:06;;;;;;;23.67;8.63;;;15.40;99.90;;;;;;5043388;28;20038;-92
2021/08/19 04:46:34;;;;;;;8.85;7.45;;;15.40;99.90;;;;;;5016058;28;20111;-91
2021/08/19 04:49:05;;;;;;;21.05;8.80;;;15.40;99.90;;;;;;5052246;28;20052;-90
2021/08/19 04:51:36;;;;;;;14.27;8.00;;;15.40;99.90;;;;;;5050614;28;20060;-88
2021/08/19 04:54:07;;;;;;;15.57;8.82;;;15.40;99.90;;;;;;5033427;28;20045;-88
2021/08/19 04:56:37;;;;;;;15.00;7.78;;;15.40;99.90;;;;;;5051021;28;20044;-90
2021/08/19 04:59:04;;;;;;;15.73;8.82;;;15.40;99.90;;;;;;5033131;28;20132;-88
2021/08/19 05:01:32;;;;;;;14.43;9.82;;;15.40;99.90;;;;;;5066975;28;20098;-91
2021/08/19 05:03:59;;;;;;;15.13;9.25;;;15.50;99.90;;;;;;5035364;28;20067;-88
2021/08/19 05:06:30;;;;;;;14.02;10.30;;;15.50;99.90;;;;;;5033347;28;20053;-88
2021/08/19 05:08:57;;;;;;;21.58;11.25;;;15.50;99.90;;;;;;5032722;28;20047;-87
2021/08/19 05:11:23;;;;;;;15.10;8.80;;;15.60;99.90;;;;;;5052462;28;20476;-89
2021/08/19 05:13:51;;;;;;;16.27;9.73;;;15.60;99.90;;;;;;5049180;28;20055;-90
2021/08/19 05:16:17;;;;;;;18.80;10.98;;;15.60;99.90;;;;;;5052576;28;20488;-88
2021/08/19 05:18:43;;;;;;;13.85;10.43;;;15.60;99.90;;;;;;5050364;28;20033;-89
2021/08/19 05:21:13;;;;;;;16.45;11.10;;;15.60;99.90;;;;;;5066668;28;20072;-89
2021/08/19 05:23:42;;;;;;;26.00;11.82;;;15.60;99.90;;;;;;5066405;28;20543;-90
2021/08/19 05:26:08;;;;;;;17.52;12.30;;;15.70;99.90;;;;;;5033658;28;20041;-90
2021/08/19 05:28:36;;;;;;;32.92;12.60;;;15.70;99.90;;;;;;5043587;28;20057;-91
2021/08/19 05:31:02;;;;;;;28.42;11.38;;;15.80;99.90;;;;;;5035746;28;20045;-90
2021/08/19 05:33:40;;;;;;;24.10;12.45;;;15.80;99.90;;;;;;5026039;28;20067;-92
2021/08/19 05:36:10;;;;;;;22.70;11.60;;;15.80;99.90;;;;;;5032377;28;20052;-88
2021/08/19 05:38:36;;;;;;;;;;;15.80;99.90;;;;;;5028215;28;20091;-91
2021/08/19 05:41:03;;;;;;;26.20;13.10;;;15.90;99.90;;;;;;5033428;28;19921;-88
2021/08/19 05:43:38;;;;;;;19.42;12.57;;;15.90;99.90;;;;;;5050392;28;20048;-90
2021/08/19 05:46:06;;;;;;;31.17;13.05;;;15.90;99.90;;;;;;5051276;28;20119;-90
2021/08/19 05:48:33;;;;;;;37.92;14.52;;;15.90;99.90;;;;;;5033509;28;20073;-91
2021/08/19 05:50:59;;;;;;;27.92;14.88;;;15.90;99.90;;;;;;5051134;28;20491;-91
2021/08/19 05:53:25;;;;;;;26.20;14.52;;;15.90;99.90;;;;;;5033393;28;20057;-91
2021/08/19 05:55:51;;;;;;;25.00;14.52;;;15.90;99.90;;;;;;5034329;28;20063;-89
2021/08/19 05:58:22;;;;;;;29.55;15.77;;;15.80;99.90;;;;;;5021509;28;20057;-90
2021/08/19 06:00:51;;;;;;;35.08;15.70;;;15.80;99.90;;;;;;5034385;28;20087;-89
2021/08/19 06:03:20;;;;;;;28.25;15.57;;;15.80;99.90;;;;;;5053569;28;20037;-90
2021/08/19 06:05:48;;;;;;;37.75;17.08;;;15.80;99.90;;;;;;5037156;28;20049;-90
2021/08/19 06:08:14;;;;;;;31.85;16.33;;;15.80;99.90;;;;;;5020973;28;20510;-91
2021/08/19 06:10:50;;;;;;;27.40;16.02;;;15.80;99.90;;;;;;5021852;28;20477;-89
2021/08/19 06:13:18;;;;;;;27.80;16.52;;;15.80;99.90;;;;;;5020770;28;20140;-91
2021/08/19 06:15:44;;;;;;;38.40;16.45;;;15.80;99.90;;;;;;5045834;28;20124;-89
2021/08/19 06:18:11;;;;;;;30.90;17.35;;;15.80;99.90;;;;;;5053470;28;20053;-91
2021/08/19 06:20:38;;;;;;;26.50;15.98;;;15.80;99.90;;;;;;5019013;28;20421;-90
2021/08/19 06:23:11;;;;;;;37.25;17.77;;;15.90;99.90;;;;;;5035383;28;20033;-89
2021/08/19 06:25:41;;;;;;;34.20;16.52;;;15.90;99.90;;;;;;5047877;28;20145;-92
2021/08/19 06:28:07;;;;;;;37.15;17.50;;;15.90;99.90;;;;;;5050727;28;20429;-87
2021/08/19 06:30:33;;;;;;;38.47;19.33;;;15.90;99.90;;;;;;5052214;28;20099;-87
2021/08/19 06:33:01;;;;;;;28.90;17.35;;;15.90;99.90;;;;;;5019195;28;20048;-87
2021/08/19 06:35:28;;;;;;;38.53;17.42;;;16.00;99.90;;;;;;5036025;28;20052;-88
2021/08/19 06:37:54;;;;;;;32.55;16.70;;;15.90;99.90;;;;;;5034098;28;20123;-88
2021/08/19 06:40:21;;;;;;;33.08;18.52;;;15.90;99.90;;;;;;5035290;28;20037;-88
2021/08/19 06:42:47;;;;;;;34.75;18.38;;;15.90;99.90;;;;;;5034109;28;20443;-88
2021/08/19 06:45:13;;;;;;;33.28;18.90;;;15.90;99.90;;;;;;5020639;28;20131;-89
2021/08/19 06:47:39;;;;;;;31.92;17.60;;;15.90;99.90;;;;;;5052002;28;20048;-89
2021/08/19 06:50:06;;;;;;;33.13;17.83;;;16.00;99.90;;;;;;5050836;28;20136;-88
2021/08/19 06:52:36;;;;;;;30.30;16.77;;;16.00;99.90;;;;;;5052297;28;20088;-87
2021/08/19 06:55:03;;;;;;;41.63;16.63;;;16.10;99.90;;;;;;5049833;28;20041;-88
2021/08/19 06:57:28;;;;;;;36.80;18.23;;;16.10;99.90;;;;;;5067960;28;20036;-86
2021/08/19 06:59:54;;;;;;;32.53;16.92;;;16.20;99.90;;;;;;5029702;28;20044;-86
2021/08/19 07:02:20;;;;;;;31.60;16.55;;;16.20;99.90;;;;;;5033538;28;20453;-87
2021/08/19 07:04:46;;;;;;;38.08;16.70;;;16.20;99.90;;;;;;5038815;28;20148;-89
2021/08/19 07:07:11;;;;;;;35.45;17.80;;;16.20;99.90;;;;;;5051117;28;20051;-87
2021/08/19 07:09:37;;;;;;;31.90;15.98;;;16.20;99.90;;;;;;5050683;28;20508;-89
2021/08/19 07:12:03;;;;;;;32.85;16.38;;;16.20;99.90;;;;;;5040433;28;20041;-91
2021/08/19 07:14:29;;;;;;;30.75;16.58;;;16.20;99.90;;;;;;5062604;28;20053;-90
2021/08/19 07:16:55;;;;;;;29.65;17.00;;;16.20;99.90;;;;;;5046238;28;20049;-89
2021/08/19 07:19:23;;;;;;;33.17;17.27;;;16.20;99.90;;;;;;5022548;28;20079;-91
2021/08/19 07:21:49;;;;;;;35.22;18.17;;;16.20;99.90;;;;;;5059971;28;20042;-89
2021/08/19 07:24:15;;;;;;;37.42;18.10;;;16.20;99.90;;;;;;5046560;28;20033;-91
2021/08/19 07:26:41;;;;;;;41.00;19.02;;;16.20;99.90;;;;;;5035473;28;20090;-89
2021/08/19 07:29:07;;;;;;;37.75;18.98;;;16.10;99.90;;;;;;5017913;28;20458;-87
2021/08/19 07:31:35;;;;;;;73.30;21.73;;;16.20;99.90;;;;;;5063907;28;20049;-86
2021/08/19 07:34:01;;;;;;;64.57;25.85;;;16.10;99.90;;;;;;5032357;28;20052;-88
2021/08/19 07:36:27;;;;;;;56.95;23.40;;;16.10;99.90;;;;;;5047056;28;20057;-86
2021/08/19 07:38:52;;;;;;;57.72;24.10;;;16.00;99.90;;;;;;5059630;28;20041;-85
2021/08/19 07:41:19;;;;;;;59.47;25.42;;;16.00;99.90;;;;;;5050408;28;20407;-87
2021/08/19 07:43:45;;;;;;;57.60;23.60;;;16.00;99.90;;;;;;5049381;28;20041;-87
2021/08/19 07:46:11;;;;;;;43.65;22.30;;;16.00;99.90;;;;;;5056574;28;20118;-85
2021/08/19 07:48:40;;;;;;;38.80;20.02;;;16.00;99.90;;;;;;5049356;28;20499;-85
2021/08/19 07:51:05;;;;;;;41.28;19.52;;;16.00;99.90;;;;;;5049586;28;20645;-87
2021/08/19 07:53:31;;;;;;;41.45;20.83;;;16.00;99.90;;;;;;5064744;28;20045;-87
2021/08/19 07:55:57;;;;;;;37.15;19.55;;;16.10;99.90;;;;;;5048150;28;20041;-88
2021/08/19 07:58:23;;;;;;;47.47;21.35;;;16.00;99.90;;;;;;5064559;28;20048;-87
2021/08/19 08:00:49;;;;;;;35.25;18.80;;;16.00;99.90;;;;;;5047939;28;20052;-89
2021/08/19 08:03:14;;;;;;;28.25;16.25;;;16.00;99.90;;;;;;5059806;28;20041;-88
2021/08/19 08:05:40;;;;;;;37.22;18.90;;;16.00;99.90;;;;;;5036096;28;20484;-87
2021/08/19 08:08:10;;;;;;;41.05;20.75;;;16.00;99.90;;;;;;5064070;28;20036;-89
2021/08/19 08:10:41;;;;;;;52.60;23.90;;;16.00;99.90;;;;;;5049147;28;20049;-89
2021/08/19 08:13:08;;;;;;;22.55;13.55;;;16.00;99.90;;;;;;5034968;28;20057;-89
2021/08/19 08:15:35;;;;;;;27.92;13.95;;;15.90;99.90;;;;;;5031501;28;20052;-90
2021/08/19 08:18:04;;;;;;;22.63;11.18;;;15.90;99.90;;;;;;5029848;28;20044;-90
2021/08/19 08:20:38;;;;;;;18.75;9.60;;;15.80;99.90;;;;;;5017869;28;20467;-91
2021/08/19 08:23:05;;;;;;;24.33;10.38;;;15.80;99.90;;;;;;5049231;28;20028;-91
2021/08/19 08:25:31;;;;;;;19.42;9.70;;;15.80;99.90;;;;;;5034330;28;20044;-92
2021/08/19 08:28:10;;;;;;;17.23;9.00;;;15.70;99.90;;;;;;5033284;28;20460;-93
2021/08/19 08:30:42;;;;;;;18.65;10.15;;;15.70;99.90;;;;;;5049133;28;20060;-87
2021/08/19 08:33:08;;;;;;;20.48;10.07;;;15.70;99.90;;;;;;5048588;28;20901;-87
2021/08/19 08:35:37;;;;;;;19.40;8.43;;;15.70;99.90;;;;;;5049459;28;20471;-87
2021/08/19 08:38:08;;;;;;;23.05;11.45;;;15.70;99.90;;;;;;5047657;28;20061;-88
2021/08/19 08:40:36;;;;;;;22.08;10.40;;;15.80;99.90;;;;;;5042417;28;20111;-88
2021/08/19 08:43:04;;;;;;;16.52;10.13;;;15.90;99.90;;;;;;5044192;28;20111;-86
2021/08/19 08:45:34;;;;;;;19.58;10.63;;;15.90;99.90;;;;;;5048941;28;20045;-86
2021/08/19 08:48:02;;;;;;;26.02;12.02;;;16.00;99.90;;;;;;5032560;28;20048;-85
2021/08/19 08:50:28;;;;;;;29.70;13.23;;;16.10;99.90;;;;;;5029833;28;20057;-86
2021/08/19 08:52:56;;;;;;;27.27;13.25;;;16.30;99.90;;;;;;5060377;28;20063;-88
2021/08/19 08:55:22;;;;;;;26.52;12.65;;;16.40;99.90;;;;;;5034059;28;20435;-86
2021/08/19 08:57:49;;;;;;;30.63;14.52;;;16.50;99.90;;;;;;5050205;28;20099;-86
2021/08/19 09:00:16;;;;;;;10.48;8.05;;;16.60;99.90;;;;;;5066636;28;20044;-85
2021/08/19 09:02:44;;;;;;;9.15;6.80;;;16.90;99.90;;;;;;5033836;28;20064;-90
2021/08/19 09:05:25;;;;;;;6.65;5.70;;;17.00;99.90;;;;;;5031932;28;20368;-86
2021/08/19 09:07:54;;;;;;;7.57;5.65;;;17.00;99.90;;;;;;5049300;28;20036;-88
2021/08/19 09:10:21;;;;;;;6.82;5.80;;;17.10;99.90;;;;;;5049351;28;20080;-84
2021/08/19 09:12:47;;;;;;;7.68;5.85;;;17.20;99.90;;;;;;5049612;28;20091;-83
2021/08/19 09:15:15;;;;;;;8.05;5.65;;;17.20;99.90;;;;;;5031521;28;20045;-87
2021/08/19 09:17:55;;;;;;;7.68;5.55;;;17.40;99.90;;;;;;5047810;28;20044;-87
2021/08/19 09:20:31;;;;;;;8.95;6.13;;;17.50;99.90;;;;;;5047553;28;20041;-87
2021/08/19 09:23:05;;;;;;;8.32;6.40;;;17.50;99.90;;;;;;5048455;28;20061;-87
2021/08/19 09:25:35;;;;;;;13.95;6.70;;;17.70;99.90;;;;;;5050260;28;20041;-87
2021/08/19 09:28:14;;;;;;;10.80;6.15;;;17.90;99.90;;;;;;5037919;28;20484;-87
2021/08/19 09:30:46;;;;;;;11.43;6.20;;;18.10;99.90;;;;;;5030742;28;20037;-89
2021/08/19 09:33:11;;;;;;;8.93;6.20;;;18.30;99.90;;;;;;5063495;28;20469;-87
2021/08/19 09:35:38;;;;;;;10.27;4.90;;;18.50;99.90;;;;;;5047281;28;20099;-87
2021/08/19 09:38:09;;;;;;;7.63;4.90;;;18.60;99.90;;;;;;5047031;28;20102;-87
2021/08/19 09:40:36;;;;;;;6.85;4.82;;;18.60;99.90;;;;;;5043119;28;20045;-87
2021/08/19 09:43:03;;;;;;;6.32;4.50;;;18.60;99.90;;;;;;5037671;28;20374;-86
2021/08/19 09:45:29;;;;;;;13.02;6.68;;;18.60;99.90;;;;;;5044929;28;20045;-86
2021/08/19 09:48:09;;;;;;;10.63;5.70;;;18.70;99.90;;;;;;5045031;28;20463;-88
2021/08/19 09:50:38;;;;;;;8.40;5.55;;;18.60;99.90;;;;;;5046634;28;20049;-90
2021/08/19 09:53:24;;;;;;;10.05;4.57;;;18.80;99.90;;;;;;5047123;28;20049;-90
2021/08/19 09:55:54;;;;;;;7.53;4.90;;;19.10;99.90;;;;;;5049357;28;20405;-84
2021/08/19 09:58:31;;;;;;;6.15;5.32;;;19.20;99.90;;;;;;5049651;28;20044;-86
2021/08/19 10:00:58;;;;;;;16.63;5.05;;;19.40;99.90;;;;;;5045324;28;20480;-89
2021/08/19 10:03:25;;;;;;;9.77;5.43;;;19.40;99.90;;;;;;5048037;28;20079;-86
2021/08/19 10:05:52;;;;;;;10.13;5.82;;;19.30;99.90;;;;;;5030646;28;20102;-86
2021/08/19 10:08:18;;;;;;;7.43;4.78;;;19.50;99.90;;;;;;5047326;28;20624;-86
2021/08/19 10:10:44;;;;;;;10.73;5.18;;;19.50;99.90;;;;;;5047208;28;20151;-86
2021/08/19 10:13:12;;;;;;;6.95;4.65;;;19.60;99.90;;;;;;5046948;28;20049;-86
2021/08/19 10:15:40;;;;;;;;;;;19.60;99.90;;;;;;5048682;28;20120;-86
2021/08/19 10:18:07;;;;;;;5.03;4.30;;;19.70;99.90;;;;;;5030101;28;19928;-88
2021/08/19 10:20:40;;;;;;;9.90;5.22;;;20.00;99.90;;;;;;5053841;28;20042;-87
2021/08/19 10:23:07;;;;;;;7.28;4.60;;;20.00;99.90;;;;;;5040854;28;20493;-86
2021/08/19 10:25:33;;;;;;;5.22;4.45;;;20.10;99.90;;;;;;5051183;28;20041;-86
2021/08/19 10:28:20;;;;;;;7.10;4.32;;;20.10;99.90;;;;;;5052631;28;20607;-88
2021/08/19 10:30:55;;;;;;;5.30;4.43;;;19.60;99.90;;;;;;5048659;28;20060;-89
2021/08/19 10:33:36;;;;;;;9.27;5.32;;;19.60;99.90;;;;;;5044660;28;20140;-82
2021/08/19 10:36:24;;;;;;;7.00;4.05;;;19.50;99.90;;;;;;5047527;28;20068;-85
2021/08/19 10:38:50;;;;;;;6.50;4.63;;;19.20;99.90;;;;;;5047095;28;20036;-84
2021/08/19 10:41:31;;;;;;;9.13;5.50;;;19.00;99.90;;;;;;5047295;28;20382;-84
2021/08/19 10:44:05;;;;;;;8.75;5.78;;;18.40;99.90;;;;;;5048625;28;20041;-84
2021/08/19 10:46:42;;;;;;;10.43;6.10;;;17.90;99.90;;;;;;5051706;28;20060;-84
2021/08/19 10:49:29;;;;;;;9.63;6.50;;;17.50;99.90;;;;;;5033079;28;20040;-84
2021/08/19 10:51:55;;;;;;;9.65;6.50;;;17.40;99.90;;;;;;5051647;28;20154;-84
2021/08/19 10:54:34;;;;;;;16.75;6.40;;;17.30;99.90;;;;;;5051581;28;20090;-84
2021/08/19 10:57:32;;;;;;;15.52;6.55;;;17.20;99.90;;;;;;5052395;28;20060;-83
2021/08/19 11:00:04;;;;;;;12.25;7.63;;;17.10;99.90;;;;;;5049980;28;20049;-86
2021/08/19 11:02:47;;;;;;;16.95;9.70;;;17.00;99.90;;;;;;5032947;28;20729;-85
2021/08/19 11:05:28;;;;;;;22.55;9.77;;;17.00;99.90;;;;;;5050087;28;20069;-86
2021/08/19 11:07:56;;;;;;;23.67;9.85;;;17.10;99.90;;;;;;5037794;28;20045;-84
2021/08/19 11:10:28;;;;;;;17.15;7.80;;;17.10;99.90;;;;;;5055055;28;20095;-85
2021/08/19 11:13:06;;;;;;;15.57;7.18;;;17.00;99.90;;;;;;5050769;28;20049;-86
2021/08/19 11:15:36;;;;;;;14.40;6.45;;;17.10;99.90;;;;;;5051741;28;20522;-85
2021/08/19 11:18:02;;;;;;;16.10;7.47;;;17.00;99.90;;;;;;5060380;28;20044;-90
2021/08/19 11:20:33;;;;;;;10.57;5.28;;;17.00;99.90;;;;;;5049053;28;20037;-87
2021/08/19 11:23:09;;;;;;;12.32;5.18;;;17.10;99.90;;;;;;5050379;28;20534;-87
2021/08/19 11:25:37;;;;;;;12.75;5.55;;;17.00;99.90;;;;;;5041250;28;20037;-88
2021/08/19 11:28:16;;;;;;;9.10;5.20;;;17.10;99.90;;;;;;5046344;28;20045;-87
2021/08/19 11:30:47;;;;;;;13.63;5.70;;;17.20;99.90;;;;;;5047560;28;20075;-87
2021/08/19 11:33:20;;;;;;;10.82;5.60;;;17.30;99.90;;;;;;5048586;28;20037;-87
2021/08/19 11:35:48;;;;;;;13.43;6.40;;;17.40;99.90;;;;;;5049029;28;20045;-88
2021/08/19 11:38:22;;;;;;;17.25;5.78;;;17.50;99.90;;;;;;5030370;28;20053;-88
2021/08/19 11:40:54;;;;;;;10.95;5.40;;;17.70;99.90;;;;;;5032263;28;20095;-88
2021/08/19 11:43:30;;;;;;;9.85;5.68;;;17.90;99.90;;;;;;5049714;28;20057;-87
2021/08/19 11:46:17;;;;;;;9.63;5.05;;;18.00;99.90;;;;;;5050922;28;20049;-87
2021/08/19 11:48:54;;;;;;;10.23;4.90;;;18.10;99.90;;;;;;5051300;28;20048;-88
2021/08/19 11:51:21;;;;;;;15.07;5.82;;;18.20;99.90;;;;;;5050314;28;20076;-88
2021/08/19 11:53:56;;;;;;;8.57;4.63;;;18.50;99.90;;;;;;5032961;28;20115;-88
2021/08/19 11:56:29;;;;;;;14.38;5.60;;;18.40;99.90;;;;;;5032430;28;20079;-88
2021/08/19 11:59:07;;;;;;;17.48;5.20;;;18.30;99.90;;;;;;5033451;28;20477;-88
2021/08/19 12:01:54;;;;;;;19.63;6.97;;;18.40;99.90;;;;;;5050764;28;20496;-88
2021/08/19 12:04:34;;;;;;;10.45;5.15;;;18.70;99.90;;;;;;5047132;28;20493;-88
2021/08/19 12:07:02;;;;;;;11.18;5.78;;;18.80;99.90;;;;;;5050851;28;20116;-88
2021/08/19 12:09:31;;;;;;;13.55;4.20;;;18.90;99.90;;;;;;5031856;28;20534;-88
2021/08/19 12:11:57;;;;;;;5.23;3.50;;;18.80;99.90;;;;;;5066195;28;20054;-88
2021/08/19 12:14:30;;;;;;;7.25;3.50;;;18.70;99.90;;;;;;5049752;28;20295;-88
2021/08/19 12:16:57;;;;;;;8.70;3.78;;;18.60;99.90;;;;;;5050758;28;20045;-88
2021/08/19 12:19:27;;;;;;;10.52;4.57;;;18.60;99.90;;;;;;5048116;28;20412;-89
2021/08/19 12:21:55;;;;;;;6.10;4.05;;;18.80;99.90;;;;;;5049599;28;20040;-88
2021/08/19 12:24:21;;;;;;;5.38;4.25;;;18.80;99.90;;;;;;5048352;28;20048;-88
2021/08/19 12:27:14;;;;;;;10.48;4.47;;;18.90;99.90;;;;;;5050740;28;20048;-88
2021/08/19 12:29:51;;;;;;;5.00;4.13;;;18.90;99.90;;;;;;5050003;28;20033;-87
2021/08/19 12:32:21;;;;;;;7.10;4.50;;;18.90;99.90;;;;;;5048421;28;20053;-88
2021/08/19 12:35:00;;;;;;;;;;;18.90;99.90;;;;;;5050484;28;20439;-88
2021/08/19 12:37:28;;;;;;;15.87;4.40;;;18.90;99.90;;;;;;5064939;28;20011;-88
2021/08/19 12:39:54;;;;;;;5.93;4.40;;;18.70;99.90;;;;;;5049726;28;20583;-88
2021/08/19 12:42:20;;;;;;;10.82;4.63;;;18.80;99.90;;;;;;5049565;28;20045;-88
2021/08/19 12:45:12;;;;;;;7.18;4.47;;;18.80;99.90;;;;;;5048966;28;20049;-88
2021/08/19 12:47:59;;;;;;;8.73;4.38;;;18.90;99.90;;;;;;5040833;28;20053;-88